createdAt,value
2018-03-01T00:01:36.002Z,39.00
2018-03-01T00:06:36.999Z,38.80
2018-03-01T00:11:37.987Z,39.00
2018-03-01T00:16:38.983Z,39.00
2018-03-01T00:21:40.727Z,38.90
2018-03-01T00:26:41.711Z,38.90
2018-03-01T00:31:42.723Z,39.00
2018-03-01T00:36:43.740Z,38.80
2018-03-01T00:41:44.728Z,39.40
2018-03-01T00:46:45.748Z,39.00
2018-03-01T00:51:46.748Z,38.70
2018-03-01T00:56:47.739Z,38.40
2018-03-01T01:01:48.746Z,38.50
2018-03-01T01:06:50.503Z,38.30
2018-03-01T01:11:51.824Z,38.30
2018-03-01T01:16:53.563Z,38.40
2018-03-01T01:21:54.605Z,38.20
2018-03-01T01:26:56.376Z,38.20
2018-03-01T01:31:57.403Z,38.20
2018-03-01T01:36:59.167Z,38.50
2018-03-01T01:42:00.148Z,38.40
2018-03-01T01:47:01.166Z,38.50
2018-03-01T01:52:02.920Z,38.60
2018-03-01T01:57:03.912Z,38.60
2018-03-01T02:02:04.918Z,38.60
2018-03-01T02:07:05.919Z,38.50
2018-03-01T02:12:07.664Z,38.60
2018-03-01T02:17:08.654Z,38.70
2018-03-01T02:22:09.679Z,38.60
2018-03-01T02:27:11.483Z,38.90
2018-03-01T02:32:13.225Z,38.80
2018-03-01T02:37:14.243Z,38.80
2018-03-01T02:42:15.240Z,38.90
2018-03-01T02:47:16.974Z,39.00
2018-03-01T02:52:17.955Z,39.00
2018-03-01T02:57:18.948Z,39.20
2018-03-01T03:02:19.979Z,39.20
2018-03-01T03:07:20.964Z,39.40
2018-03-01T03:12:22.708Z,39.50
2018-03-01T03:22:52.560Z,39.40
2018-03-01T03:27:53.752Z,39.70
2018-03-01T03:32:54.755Z,39.70
2018-03-01T03:37:56.521Z,39.60
2018-03-01T03:42:57.524Z,39.60
2018-03-01T03:47:58.511Z,39.50
2018-03-01T03:52:59.520Z,39.50
2018-03-01T03:58:01.280Z,39.70
2018-03-01T04:03:02.280Z,39.70
2018-03-01T04:08:03.315Z,39.70
2018-03-01T04:13:04.316Z,39.40
2018-03-01T04:18:05.299Z,39.60
2018-03-01T04:23:06.310Z,39.60
2018-03-01T04:28:07.304Z,39.50
2018-03-01T04:33:09.060Z,39.60
2018-03-01T04:38:10.063Z,39.50
2018-03-01T04:43:11.069Z,39.50
2018-03-01T04:48:12.799Z,39.50
2018-03-01T04:53:13.798Z,39.50
2018-03-01T04:58:14.792Z,39.80
2018-03-01T05:03:15.803Z,39.50
2018-03-01T05:08:17.540Z,39.80
2018-03-01T05:13:18.552Z,39.60
2018-03-01T05:18:19.634Z,39.60
2018-03-01T05:23:20.635Z,39.50
2018-03-01T05:28:21.665Z,39.80
2018-03-01T05:33:23.384Z,39.40
2018-03-01T05:38:24.384Z,39.40
2018-03-01T05:43:25.394Z,39.60
2018-03-01T05:48:26.371Z,39.40
2018-03-01T05:53:27.352Z,39.60
2018-03-01T05:58:28.332Z,39.60
2018-03-01T06:03:29.327Z,39.60
2018-03-01T06:08:30.323Z,39.50
2018-03-01T06:13:32.064Z,39.60
2018-03-01T06:18:33.072Z,39.60
2018-03-01T06:23:34.057Z,39.50
2018-03-01T06:34:03.888Z,39.00
2018-03-01T06:39:04.963Z,39.20
2018-03-01T06:44:05.965Z,39.20
2018-03-01T06:49:07.008Z,38.90
2018-03-01T06:54:08.705Z,38.60
2018-03-01T06:59:09.700Z,38.60
2018-03-01T07:04:10.704Z,38.60
2018-03-01T07:09:11.693Z,38.20
2018-03-01T07:14:12.689Z,38.60
2018-03-01T07:19:13.691Z,38.30
2018-03-01T07:24:15.425Z,38.50
2018-03-01T07:29:16.420Z,38.40
2018-03-01T07:34:17.424Z,37.90
2018-03-01T07:39:18.430Z,37.80
2018-03-01T07:44:20.173Z,37.70
2018-03-01T07:49:21.173Z,37.60
2018-03-01T07:54:22.173Z,37.40
2018-03-01T07:59:23.155Z,37.30
2018-03-01T08:04:24.151Z,37.70
2018-03-01T08:09:25.132Z,37.10
2018-03-01T08:14:26.887Z,36.70
2018-03-01T08:19:27.889Z,36.60
2018-03-01T08:24:28.916Z,36.30
2018-03-01T08:29:29.912Z,36.00
2018-03-01T08:34:30.927Z,36.20
2018-03-01T08:39:31.948Z,35.90
2018-03-01T08:44:32.944Z,35.80
2018-03-01T08:49:34.735Z,35.70
2018-03-01T08:54:35.726Z,35.70
2018-03-01T08:59:37.487Z,35.00
2018-03-01T09:04:38.492Z,35.00
2018-03-01T09:09:39.487Z,34.90
2018-03-01T09:14:41.248Z,34.10
2018-03-01T09:19:42.232Z,34.10
2018-03-01T09:24:43.245Z,33.00
2018-03-01T09:29:44.335Z,30.80
2018-03-01T09:34:46.075Z,30.10
2018-03-01T09:39:47.064Z,30.10
2018-03-01T09:44:48.063Z,28.10
2018-03-01T09:49:49.059Z,26.90
2018-03-01T09:54:50.091Z,26.70
2018-03-01T09:59:51.108Z,25.40
2018-03-01T10:04:52.091Z,25.50
2018-03-01T10:09:53.091Z,24.40
2018-03-01T10:14:54.118Z,22.90
2018-03-01T10:19:55.113Z,23.60
2018-03-01T10:24:56.119Z,23.60
2018-03-01T10:29:57.104Z,23.90
2018-03-01T10:34:58.114Z,25.50
2018-03-01T10:39:59.876Z,26.20
2018-03-01T10:45:00.883Z,26.20
2018-03-01T10:50:01.880Z,27.60
2018-03-01T10:55:02.912Z,25.80
2018-03-01T11:00:03.924Z,25.90
2018-03-01T11:05:04.928Z,25.80
2018-03-01T11:10:05.943Z,26.70
2018-03-01T11:15:06.966Z,26.40
2018-03-01T11:20:07.981Z,25.90
2018-03-01T11:25:08.993Z,25.70
2018-03-01T11:30:09.987Z,25.70
2018-03-01T11:35:10.983Z,26.20
2018-03-01T11:40:12.000Z,26.30
2018-03-01T11:45:13.001Z,26.50
2018-03-01T11:50:14.744Z,25.60
2018-03-01T11:55:15.755Z,25.60
2018-03-01T12:00:16.755Z,25.50
2018-03-01T12:05:17.754Z,25.80
2018-03-01T12:10:19.499Z,25.30
2018-03-01T12:15:20.484Z,25.30
2018-03-01T12:20:21.509Z,24.60
2018-03-01T12:25:23.248Z,25.20
2018-03-01T12:30:24.233Z,24.50
2018-03-01T12:35:25.227Z,24.50
2018-03-01T12:40:26.240Z,24.40
2018-03-01T12:45:27.234Z,24.40
2018-03-01T12:50:28.248Z,24.40
2018-03-01T12:55:29.267Z,24.40
2018-03-01T13:00:30.308Z,23.70
2018-03-01T13:05:31.315Z,23.90
2018-03-01T13:10:42.288Z,23.70
2018-03-01T13:15:43.327Z,23.00
2018-03-01T13:20:44.338Z,22.80
2018-03-01T13:25:45.384Z,22.90
2018-03-01T13:30:46.396Z,23.00
2018-03-01T13:35:57.392Z,23.30
2018-03-01T13:40:58.420Z,23.70
2018-03-01T13:46:01.007Z,23.00
2018-03-01T13:51:02.010Z,22.90
2018-03-01T13:56:03.016Z,22.90
2018-03-01T14:01:04.803Z,23.10
2018-03-01T14:11:44.767Z,22.60
2018-03-01T14:22:23.607Z,22.60
2018-03-01T14:27:26.651Z,22.90
2018-03-01T14:32:27.656Z,22.40
2018-03-01T14:37:28.680Z,22.70
2018-03-01T14:42:36.777Z,22.20
2018-03-01T14:47:37.767Z,21.90
2018-03-01T14:52:38.772Z,21.50
2018-03-01T14:57:39.755Z,21.50
2018-03-01T15:02:40.747Z,21.70
2018-03-01T15:07:41.775Z,21.00
2018-03-01T15:12:42.779Z,21.40
2018-03-01T15:17:43.791Z,20.80
2018-03-01T15:22:44.789Z,20.90
2018-03-01T15:27:45.779Z,21.20
2018-03-01T15:32:46.820Z,21.00
2018-03-01T15:37:47.836Z,21.20
2018-03-01T15:42:48.839Z,21.10
2018-03-01T15:47:50.612Z,20.70
2018-03-01T15:52:51.620Z,20.60
2018-03-01T15:57:52.657Z,21.00
2018-03-01T16:02:53.664Z,21.00
2018-03-01T16:07:54.664Z,20.90
2018-03-01T16:12:55.679Z,21.00
2018-03-01T16:17:56.735Z,21.30
2018-03-01T16:22:58.500Z,21.00
2018-03-01T16:27:59.488Z,20.90
2018-03-01T16:33:00.482Z,21.20
2018-03-01T16:38:01.500Z,21.40
2018-03-01T16:43:03.219Z,22.10
2018-03-01T16:48:04.235Z,22.00
2018-03-01T16:53:05.228Z,22.10
2018-03-01T16:58:06.256Z,22.20
2018-03-01T17:03:07.303Z,22.50
2018-03-01T17:08:08.309Z,22.80
2018-03-01T17:13:10.044Z,22.90
2018-03-01T17:18:11.072Z,22.90
2018-03-01T17:23:12.078Z,23.10
2018-03-01T17:28:13.811Z,22.60
2018-03-01T17:33:14.826Z,22.60
2018-03-01T17:38:15.849Z,22.70
2018-03-01T17:43:16.840Z,23.40
2018-03-01T17:48:17.852Z,22.60
2018-03-01T17:53:18.848Z,22.50
2018-03-01T17:58:19.871Z,22.60
2018-03-01T18:03:21.628Z,22.80
2018-03-01T18:08:23.484Z,22.70
2018-03-01T18:13:24.488Z,22.80
2018-03-01T18:18:25.516Z,23.00
2018-03-01T18:23:26.532Z,22.90
2018-03-01T18:28:27.537Z,23.10
2018-03-01T18:33:28.563Z,23.30
2018-03-01T18:38:29.612Z,23.90
2018-03-01T18:43:30.661Z,23.50
2018-03-01T18:48:31.707Z,23.50
2018-03-01T18:53:33.527Z,23.70
2018-03-01T18:58:34.540Z,23.70
2018-03-01T19:03:35.613Z,23.90
2018-03-01T19:08:36.604Z,24.10
2018-03-01T19:13:37.651Z,24.30
2018-03-01T19:18:39.399Z,24.80
2018-03-01T19:23:40.449Z,24.80
2018-03-01T19:28:41.440Z,24.80
2018-03-01T19:33:42.434Z,24.70
2018-03-01T19:38:43.666Z,25.10
2018-03-01T19:43:44.720Z,25.30
2018-03-01T19:48:45.723Z,25.20
2018-03-01T19:53:46.839Z,25.60
2018-03-01T19:58:48.639Z,26.10
2018-03-01T20:03:50.370Z,26.10
2018-03-01T20:08:51.377Z,26.00
2018-03-01T20:13:52.370Z,26.30
2018-03-01T20:18:53.371Z,26.40
2018-03-01T20:23:55.116Z,26.70
2018-03-01T20:28:56.216Z,26.60
2018-03-01T20:33:57.256Z,26.60
2018-03-01T20:38:59.116Z,27.00
2018-03-01T20:44:00.139Z,27.00
2018-03-01T20:49:01.882Z,27.50
2018-03-01T20:54:03.078Z,27.40
2018-03-01T20:59:04.320Z,27.40
2018-03-01T21:04:06.060Z,27.80
2018-03-01T21:09:07.061Z,27.70
2018-03-01T21:14:08.074Z,27.60
2018-03-01T21:19:09.060Z,28.00
2018-03-01T21:24:10.803Z,28.20
2018-03-01T21:29:11.804Z,28.20
2018-03-01T21:34:12.792Z,27.80
2018-03-01T21:39:13.820Z,27.90
2018-03-01T21:44:15.578Z,28.20
2018-03-01T21:49:16.595Z,28.10
2018-03-01T21:54:17.587Z,28.30
2018-03-01T21:59:19.336Z,29.00
2018-03-01T22:04:20.332Z,28.70
2018-03-01T22:09:21.316Z,28.60
2018-03-01T22:14:22.312Z,29.00
2018-03-01T22:19:23.367Z,28.80
2018-03-01T22:24:24.379Z,28.90
2018-03-01T22:29:25.379Z,28.90
2018-03-01T22:34:26.380Z,29.20
2018-03-01T22:39:28.111Z,29.30
2018-03-01T22:44:29.131Z,29.30
2018-03-01T22:49:30.161Z,29.60
2018-03-01T22:54:31.164Z,30.00
2018-03-01T22:59:32.167Z,29.70
2018-03-01T23:04:33.179Z,30.20
2018-03-01T23:09:34.938Z,30.10
2018-03-01T23:14:35.940Z,30.10
2018-03-01T23:19:36.934Z,30.40
2018-03-01T23:24:37.935Z,30.70
2018-03-01T23:29:39.688Z,31.30
2018-03-01T23:34:40.720Z,31.20
2018-03-01T23:39:41.719Z,31.70
2018-03-01T23:44:43.460Z,31.70
2018-03-01T23:49:44.476Z,31.70
2018-03-01T23:54:45.468Z,31.80
2018-03-01T23:59:47.224Z,32.40
